Time;durP1;ratioP1;P1;durP2;ratioP2;P2;SDS_P1;SDS_P2;PMS_P1;PMS_P2;Temp;Humidity;BMP_temperature;BMP_pressure;BME280_temperature;BME280_humidity;BME280_pressure;Samples;Min_cycle;Max_cycle;Signal;HPM_P1;HPM_P2
2023/04/30 00:02:01;;;;;;;;;;;19.50;39.10;;;;;;5071197;28;19924;-59
2023/04/30 00:04:28;;;;;;;;;;;19.50;39.10;;;;;;5089497;28;20185;-59
2023/04/30 00:06:55;;;;;;;;;;;19.50;39.10;;;;;;5069403;28;19920;-59
2023/04/30 00:09:22;;;;;;;;;;;19.60;39.20;;;;;;5088469;28;19940;-59
2023/04/30 00:11:48;;;;;;;;;;;19.60;39.20;;;;;;5082835;28;19924;-59
2023/04/30 00:14:16;;;;;;;;;;;19.60;39.20;;;;;;5069174;28;19928;-59
2023/04/30 00:16:43;;;;;;;;;;;19.60;39.20;;;;;;5088274;28;20440;-59
2023/04/30 00:19:10;;;;;;;;;;;19.50;39.10;;;;;;5088105;28;20286;-59
2023/04/30 00:21:37;;;;;;;;;;;19.50;39.00;;;;;;5085268;28;19989;-59
2023/04/30 00:24:04;;;;;;;;;;;19.50;39.10;;;;;;5089289;28;19949;-59
2023/04/30 00:26:31;;;;;;;;;;;19.60;39.20;;;;;;5074657;28;19920;-59
2023/04/30 00:28:58;;;;;;;;;;;19.50;39.00;;;;;;5075151;28;19920;-59
2023/04/30 00:31:26;;;;;;;;;;;19.50;39.10;;;;;;5071762;28;20538;-59
2023/04/30 00:33:52;;;;;;;;;;;19.50;39.10;;;;;;5070443;28;19924;-59
2023/04/30 00:36:19;;;;;;;;;;;19.60;39.20;;;;;;5091537;28;19920;-59
2023/04/30 00:38:46;;;;;;;;;;;19.50;39.10;;;;;;5090606;28;19924;-59
2023/04/30 00:41:13;;;;;;;;;;;19.50;39.10;;;;;;5087184;28;19920;-59
2023/04/30 00:43:39;;;;;;;;;;;19.50;39.10;;;;;;5072150;28;20042;-59
2023/04/30 00:46:06;;;;;;;;;;;19.50;39.10;;;;;;5073027;28;19931;-59
2023/04/30 00:48:35;;;;;;;;;;;19.50;39.10;;;;;;5074259;28;19920;-59
2023/04/30 00:51:02;;;;;;;;;;;19.50;39.10;;;;;;5091294;28;20012;-58
2023/04/30 00:53:29;;;;;;;;;;;19.50;39.10;;;;;;5090059;28;19920;-58
2023/04/30 00:55:55;;;;;;;;;;;19.50;39.10;;;;;;5070044;28;20403;-59
2023/04/30 00:58:22;;;;;;;;;;;19.60;39.20;;;;;;5089207;28;20054;-59
2023/04/30 01:00:49;;;;;;;;;;;19.50;39.10;;;;;;5089172;28;20239;-61
2023/04/30 01:03:16;;;;;;;;;;;19.50;39.10;;;;;;5074831;28;19924;-60
2023/04/30 01:05:44;;;;;;;;;;;19.50;39.10;;;;;;5073736;28;19920;-60
2023/04/30 01:08:11;;;;;;;;;;;19.50;39.10;;;;;;5090170;28;19920;-61
2023/04/30 01:10:41;;;;;;;;;;;19.50;39.10;;;;;;5091251;28;19920;-60
2023/04/30 01:13:10;;;;;;;;;;;19.50;39.10;;;;;;5074056;28;19926;-61
2023/04/30 01:15:38;;;;;;;;;;;19.50;39.00;;;;;;5091230;28;19932;-61
2023/04/30 01:18:06;;;;;;;;;;;19.50;39.10;;;;;;5088995;28;19924;-61
2023/04/30 01:20:33;;;;;;;;;;;19.50;39.10;;;;;;5069313;28;19985;-60
2023/04/30 01:23:02;;;;;;;;;;;19.50;39.60;;;;;;5088155;28;19999;-59
2023/04/30 01:25:35;;;;;;;;;;;19.50;39.00;;;;;;5071634;28;19981;-61
2023/04/30 01:28:04;;;;;;;;;;;19.50;39.10;;;;;;5072153;28;19982;-61
2023/04/30 01:30:31;;;;;;;;;;;19.50;39.10;;;;;;5089466;28;20024;-60
2023/04/30 01:32:57;;;;;;;;;;;19.50;39.00;;;;;;5073438;28;20358;-60
2023/04/30 01:35:27;;;;;;;;;;;19.50;39.00;;;;;;5090220;28;19924;-60
2023/04/30 01:37:58;;;;;;;;;;;19.50;39.10;;;;;;5091766;28;19996;-61
2023/04/30 01:40:27;;;;;;;;;;;19.50;39.10;;;;;;5072493;28;19928;-61
2023/04/30 01:42:58;;;;;;;;;;;19.50;39.00;;;;;;5073270;28;19931;-61
2023/04/30 01:45:31;;;;;;;;;;;19.50;39.00;;;;;;5070127;28;19920;-61
2023/04/30 01:48:02;;;;;;;;;;;19.50;39.10;;;;;;5085994;28;20123;-61
2023/04/30 01:50:34;;;;;;;;;;;19.50;39.10;;;;;;5067482;28;19920;-61
2023/04/30 01:53:00;;;;;;;;;;;19.50;39.10;;;;;;5086059;28;19932;-61
2023/04/30 01:55:28;;;;;;;;;;;19.50;39.00;;;;;;5087353;28;19928;-61
2023/04/30 01:57:56;;;;;;;;;;;19.50;39.00;;;;;;5073517;28;20028;-61
2023/04/30 02:00:23;;;;;;;;;;;19.50;39.00;;;;;;5088361;28;20002;-61
2023/04/30 02:02:51;;;;;;;;;;;19.50;39.00;;;;;;5069931;28;19973;-61
2023/04/30 02:05:20;;;;;;;;;;;19.50;39.00;;;;;;5087346;28;20633;-61
2023/04/30 02:07:47;;;;;;;;;;;19.50;39.00;;;;;;5086846;28;20062;-61
2023/04/30 02:10:14;;;;;;;;;;;19.50;39.00;;;;;;5071972;28;19985;-61
2023/04/30 02:12:41;;;;;;;;;;;19.50;39.00;;;;;;5090174;28;20000;-61
2023/04/30 02:15:08;;;;;;;;;;;19.50;39.00;;;;;;5090039;28;19928;-61
2023/04/30 02:17:35;;;;;;;;;;;19.50;39.20;;;;;;5090181;28;19924;-61
2023/04/30 02:20:03;;;;;;;;;;;19.50;39.00;;;;;;5073032;28;20338;-60
2023/04/30 02:22:31;;;;;;;;;;;19.50;39.00;;;;;;5086993;28;19927;-60
2023/04/30 02:24:57;;;;;;;;;;;19.50;39.00;;;;;;5071818;28;19924;-60
2023/04/30 02:27:24;;;;;;;;;;;19.50;39.00;;;;;;5087862;28;19971;-60
2023/04/30 02:29:51;;;;;;;;;;;19.50;39.00;;;;;;5069792;28;19928;-61
2023/04/30 02:32:20;;;;;;;;;;;19.50;39.00;;;;;;5072314;28;19924;-61
2023/04/30 02:34:47;;;;;;;;;;;19.50;39.00;;;;;;5089246;28;19924;-61
2023/04/30 02:37:15;;;;;;;;;;;19.50;39.00;;;;;;5072694;28;19927;-61
2023/04/30 02:39:42;;;;;;;;;;;19.50;39.00;;;;;;5072189;28;19993;-61
2023/04/30 02:42:09;;;;;;;;;;;19.50;39.00;;;;;;5056081;28;19959;-61
2023/04/30 02:44:35;;;;;;;;;;;19.50;39.00;;;;;;5088408;28;19920;-61
2023/04/30 02:47:02;;;;;;;;;;;19.50;39.00;;;;;;5083687;28;19932;-60
2023/04/30 02:49:29;;;;;;;;;;;19.50;38.90;;;;;;5088823;28;19924;-60
2023/04/30 02:51:56;;;;;;;;;;;19.50;39.00;;;;;;5072307;28;19920;-61
2023/04/30 02:54:24;;;;;;;;;;;19.50;39.00;;;;;;5055799;28;19920;-61
2023/04/30 02:56:51;;;;;;;;;;;19.50;38.90;;;;;;5072148;28;19931;-61
2023/04/30 02:59:18;;;;;;;;;;;19.50;39.00;;;;;;5072388;28;19973;-60
2023/04/30 03:01:44;;;;;;;;;;;19.50;39.00;;;;;;5088229;28;19977;-61
2023/04/30 03:04:11;;;;;;;;;;;19.50;39.00;;;;;;5085128;28;19973;-61
2023/04/30 03:06:38;;;;;;;;;;;19.50;38.90;;;;;;5088619;28;20292;-60
2023/04/30 03:09:04;;;;;;;;;;;19.50;38.90;;;;;;5071919;28;19940;-60
2023/04/30 03:11:36;;;;;;;;;;;19.50;39.00;;;;;;5083202;28;20493;-60
2023/04/30 03:14:03;;;;;;;;;;;19.50;38.90;;;;;;5071979;28;19927;-60
2023/04/30 03:16:30;;;;;;;;;;;19.50;38.90;;;;;;5088344;28;20300;-60
2023/04/30 03:18:57;;;;;;;;;;;19.50;38.90;;;;;;5089083;28;20242;-60
2023/04/30 03:21:23;;;;;;;;;;;19.50;38.90;;;;;;5089397;28;19927;-60
2023/04/30 03:23:50;;;;;;;;;;;19.50;38.90;;;;;;5087699;28;19927;-59
2023/04/30 03:26:17;;;;;;;;;;;19.50;38.90;;;;;;5069515;28;19935;-61
2023/04/30 03:28:45;;;;;;;;;;;19.50;38.90;;;;;;5086194;28;19981;-61
2023/04/30 03:31:12;;;;;;;;;;;19.50;38.90;;;;;;5086004;28;20009;-61
2023/04/30 03:33:38;;;;;;;;;;;19.50;38.90;;;;;;5071591;28;19920;-61
2023/04/30 03:36:06;;;;;;;;;;;19.50;38.90;;;;;;5088925;28;19923;-61
2023/04/30 03:38:33;;;;;;;;;;;19.50;38.90;;;;;;5066681;28;19927;-61
2023/04/30 03:41:00;;;;;;;;;;;19.50;38.90;;;;;;5071678;28;19943;-60
2023/04/30 03:43:26;;;;;;;;;;;19.50;38.90;;;;;;5071365;28;19927;-61
2023/04/30 03:45:55;;;;;;;;;;;19.50;38.90;;;;;;5086630;28;20402;-60
2023/04/30 03:48:21;;;;;;;;;;;19.50;38.90;;;;;;5071233;28;19920;-60
2023/04/30 03:50:48;;;;;;;;;;;19.50;38.90;;;;;;5091129;28;20423;-60
2023/04/30 03:53:15;;;;;;;;;;;19.50;38.90;;;;;;5067780;28;19920;-60
2023/04/30 03:55:43;;;;;;;;;;;19.50;38.90;;;;;;5068081;28;19920;-60
2023/04/30 03:58:10;;;;;;;;;;;19.50;38.90;;;;;;5075046;28;19920;-60
2023/04/30 04:00:37;;;;;;;;;;;19.50;38.90;;;;;;5075572;28;19924;-60
2023/04/30 04:03:06;;;;;;;;;;;19.50;38.90;;;;;;5093543;28;20014;-61
2023/04/30 04:05:32;;;;;;;;;;;19.50;38.90;;;;;;5091859;28;19963;-60
2023/04/30 04:07:59;;;;;;;;;;;19.50;38.80;;;;;;5073384;28;19965;-61
2023/04/30 04:10:26;;;;;;;;;;;19.50;38.90;;;;;;5074917;28;19924;-61
2023/04/30 04:12:53;;;;;;;;;;;19.50;38.90;;;;;;5075227;28;19925;-60
2023/04/30 04:15:20;;;;;;;;;;;19.50;38.80;;;;;;5095189;28;19920;-61
2023/04/30 04:17:47;;;;;;;;;;;19.50;38.90;;;;;;5090869;28;19977;-61
2023/04/30 04:20:16;;;;;;;;;;;19.50;38.80;;;;;;5093394;28;19970;-60
2023/04/30 04:22:43;;;;;;;;;;;19.50;38.80;;;;;;5088970;28;19926;-61
2023/04/30 04:25:14;;;;;;;;;;;19.50;38.80;;;;;;5088778;28;19966;-61
2023/04/30 04:27:41;;;;;;;;;;;19.50;38.80;;;;;;5073280;28;19974;-60
2023/04/30 04:30:08;;;;;;;;;;;19.50;38.80;;;;;;5075405;28;19927;-60
2023/04/30 04:32:45;;;;;;;;;;;19.50;38.80;;;;;;5092601;28;19927;-61
2023/04/30 04:35:12;;;;;;;;;;;19.50;38.80;;;;;;5090627;28;20429;-62
2023/04/30 04:37:41;;;;;;;;;;;19.50;38.80;;;;;;5074493;28;19993;-61
2023/04/30 04:40:09;;;;;;;;;;;19.50;38.80;;;;;;5093131;28;20010;-61
2023/04/30 04:42:37;;;;;;;;;;;19.50;38.80;;;;;;5073052;28;19924;-61
2023/04/30 04:45:05;;;;;;;;;;;19.50;38.80;;;;;;5073740;28;20367;-61
2023/04/30 04:47:31;;;;;;;;;;;19.50;38.80;;;;;;5074073;28;20262;-60
2023/04/30 04:49:58;;;;;;;;;;;19.50;38.80;;;;;;5091709;28;19932;-60
2023/04/30 04:52:25;;;;;;;;;;;19.50;38.80;;;;;;5091428;28;19920;-60
2023/04/30 04:54:53;;;;;;;;;;;19.50;38.80;;;;;;5074683;28;20364;-59
2023/04/30 04:57:20;;;;;;;;;;;19.50;38.80;;;;;;5075349;28;20243;-60
2023/04/30 04:59:46;;;;;;;;;;;19.50;38.80;;;;;;5071410;28;19993;-61
2023/04/30 05:02:13;;;;;;;;;;;19.50;38.80;;;;;;5089824;28;19924;-61
2023/04/30 05:04:40;;;;;;;;;;;19.50;38.80;;;;;;5091162;28;19932;-61
2023/04/30 05:07:08;;;;;;;;;;;19.50;38.80;;;;;;5074747;28;19973;-61
2023/04/30 05:09:35;;;;;;;;;;;19.50;38.80;;;;;;5092196;28;19927;-60
2023/04/30 05:12:03;;;;;;;;;;;19.50;38.80;;;;;;5074607;28;20022;-60
2023/04/30 05:14:30;;;;;;;;;;;19.50;38.80;;;;;;5092730;28;20050;-60
2023/04/30 05:16:56;;;;;;;;;;;19.50;38.80;;;;;;5090828;28;19931;-60
2023/04/30 05:19:23;;;;;;;;;;;19.50;38.80;;;;;;5073338;28;20271;-60
2023/04/30 05:21:52;;;;;;;;;;;19.50;38.80;;;;;;5074126;28;20397;-60
2023/04/30 05:24:19;;;;;;;;;;;19.50;38.80;;;;;;5073788;28;19932;-61
2023/04/30 05:26:46;;;;;;;;;;;19.50;38.80;;;;;;5074059;28;19977;-61
2023/04/30 05:29:14;;;;;;;;;;;19.50;38.80;;;;;;5074529;28;20278;-61
2023/04/30 05:31:41;;;;;;;;;;;19.50;38.80;;;;;;5074317;28;19924;-61
2023/04/30 05:34:08;;;;;;;;;;;19.50;38.80;;;;;;5074777;28;19924;-61
2023/04/30 05:36:35;;;;;;;;;;;19.50;38.80;;;;;;5090626;28;19924;-61
2023/04/30 05:39:02;;;;;;;;;;;19.50;38.80;;;;;;5074636;28;19920;-61
2023/04/30 05:41:29;;;;;;;;;;;19.50;38.80;;;;;;5074216;28;19958;-60
2023/04/30 05:43:56;;;;;;;;;;;19.50;38.80;;;;;;5092132;28;19924;-61
2023/04/30 05:46:25;;;;;;;;;;;19.50;38.80;;;;;;5090910;28;19977;-61
2023/04/30 05:48:51;;;;;;;;;;;19.50;38.80;;;;;;5073629;28;19969;-61
2023/04/30 05:51:19;;;;;;;;;;;19.50;38.80;;;;;;5073578;28;19970;-61
2023/04/30 05:53:46;;;;;;;;;;;19.50;38.80;;;;;;5085286;28;19985;-61
2023/04/30 05:56:13;;;;;;;;;;;19.50;38.80;;;;;;5073521;28;19973;-61
2023/04/30 05:58:39;;;;;;;;;;;19.50;38.80;;;;;;5073030;28;19987;-61
2023/04/30 06:01:09;;;;;;;;;;;19.50;38.80;;;;;;5073307;28;20335;-61
2023/04/30 06:03:37;;;;;;;;;;;19.50;38.80;;;;;;5073325;28;20022;-61
2023/04/30 06:06:04;;;;;;;;;;;19.50;38.80;;;;;;5072124;28;20022;-61
2023/04/30 06:08:31;;;;;;;;;;;19.50;38.80;;;;;;5072000;28;19920;-59
2023/04/30 06:10:58;;;;;;;;;;;19.50;38.80;;;;;;5089077;28;19923;-60
2023/04/30 06:13:25;;;;;;;;;;;19.50;38.80;;;;;;5073055;28;19927;-60
2023/04/30 06:15:52;;;;;;;;;;;19.50;38.80;;;;;;5072991;28;19971;-60
2023/04/30 06:18:19;;;;;;;;;;;19.50;38.80;;;;;;5072344;28;19920;-60
2023/04/30 06:20:47;;;;;;;;;;;19.50;38.80;;;;;;5071696;28;19920;-60
2023/04/30 06:23:14;;;;;;;;;;;19.50;38.80;;;;;;5071738;28;19920;-60
2023/04/30 06:25:41;;;;;;;;;;;19.50;38.80;;;;;;5084628;28;19970;-60
2023/04/30 06:28:08;;;;;;;;;;;19.50;38.80;;;;;;5086171;28;19958;-60
2023/04/30 06:30:36;;;;;;;;;;;19.50;38.80;;;;;;5089320;28;20362;-60
2023/04/30 06:33:03;;;;;;;;;;;19.50;38.80;;;;;;5071942;28;19920;-60
2023/04/30 06:35:29;;;;;;;;;;;19.50;38.80;;;;;;5088410;28;19924;-60
2023/04/30 06:37:58;;;;;;;;;;;19.50;38.80;;;;;;5072279;28;19973;-60
2023/04/30 06:40:24;;;;;;;;;;;19.50;38.80;;;;;;5072015;28;20350;-60
2023/04/30 06:42:53;;;;;;;;;;;19.50;38.80;;;;;;5089841;28;19920;-60
2023/04/30 06:45:20;;;;;;;;;;;19.50;38.80;;;;;;5085580;28;19920;-61
2023/04/30 06:47:46;;;;;;;;;;;19.50;38.80;;;;;;5088433;28;19928;-60
2023/04/30 06:50:14;;;;;;;;;;;19.50;38.80;;;;;;5090096;28;20023;-60
2023/04/30 06:52:41;;;;;;;;;;;19.50;38.80;;;;;;5089226;28;19971;-60
2023/04/30 06:55:09;;;;;;;;;;;19.50;38.80;;;;;;5088808;28;19923;-60
2023/04/30 06:57:36;;;;;;;;;;;19.50;38.80;;;;;;5088433;28;20039;-61
2023/04/30 07:00:04;;;;;;;;;;;19.50;38.80;;;;;;5087761;28;19920;-60
2023/04/30 07:02:31;;;;;;;;;;;19.50;38.80;;;;;;5089363;28;19928;-60
2023/04/30 07:04:58;;;;;;;;;;;19.50;38.80;;;;;;5090513;28;19966;-60
2023/04/30 07:07:25;;;;;;;;;;;19.50;38.80;;;;;;5072767;28;19965;-61
2023/04/30 07:09:52;;;;;;;;;;;19.50;38.80;;;;;;5090709;28;19928;-60
2023/04/30 07:12:21;;;;;;;;;;;19.50;38.80;;;;;;5072245;28;19920;-60
2023/04/30 07:14:48;;;;;;;;;;;19.50;38.80;;;;;;5071809;28;19920;-59
2023/04/30 07:17:14;;;;;;;;;;;19.50;38.80;;;;;;5060620;28;19976;-60
2023/04/30 07:19:41;;;;;;;;;;;19.50;38.80;;;;;;5084153;28;20518;-60
2023/04/30 07:22:08;;;;;;;;;;;19.50;38.80;;;;;;5072263;28;19920;-60
2023/04/30 07:24:35;;;;;;;;;;;19.50;38.80;;;;;;5072051;28;19930;-59
2023/04/30 07:27:02;;;;;;;;;;;19.50;38.80;;;;;;5071554;28;19963;-59
2023/04/30 07:29:31;;;;;;;;;;;19.50;38.90;;;;;;5072194;28;19920;-60
2023/04/30 07:31:57;;;;;;;;;;;19.50;38.80;;;;;;5081984;28;19978;-60
2023/04/30 07:34:25;;;;;;;;;;;19.50;38.80;;;;;;5082837;28;19966;-60
2023/04/30 07:36:51;;;;;;;;;;;19.50;38.80;;;;;;5072551;28;19924;-60
2023/04/30 07:39:18;;;;;;;;;;;19.50;38.80;;;;;;5090964;28;19920;-60
2023/04/30 07:41:47;;;;;;;;;;;19.50;38.90;;;;;;5072766;28;20393;-60
2023/04/30 07:44:14;;;;;;;;;;;19.50;38.80;;;;;;5071743;28;20243;-61
2023/04/30 07:46:45;;;;;;;;;;;19.50;38.80;;;;;;5089173;28;19924;-60
2023/04/30 07:49:11;;;;;;;;;;;19.50;38.80;;;;;;5077371;28;19959;-60
2023/04/30 07:51:38;;;;;;;;;;;19.50;38.80;;;;;;5086747;28;19928;-60
2023/04/30 07:54:05;;;;;;;;;;;19.50;38.80;;;;;;5087516;28;19920;-60
2023/04/30 07:56:32;;;;;;;;;;;19.60;38.90;;;;;;5088701;28;20022;-60
2023/04/30 07:58:59;;;;;;;;;;;19.60;38.90;;;;;;5071537;28;19932;-60
2023/04/30 08:01:29;;;;;;;;;;;19.60;39.00;;;;;;5071383;28;19927;-60
2023/04/30 08:03:57;;;;;;;;;;;19.60;39.00;;;;;;5059777;28;20346;-60
2023/04/30 08:06:24;;;;;;;;;;;19.60;38.90;;;;;;5071321;28;20289;-59
2023/04/30 08:08:51;;;;;;;;;;;19.60;38.90;;;;;;5087783;28;19928;-61
2023/04/30 08:11:18;;;;;;;;;;;19.60;38.90;;;;;;5071396;28;19927;-60
2023/04/30 08:13:45;;;;;;;;;;;19.60;38.90;;;;;;5055717;28;19920;-61
2023/04/30 08:16:12;;;;;;;;;;;19.60;38.90;;;;;;5071846;28;20011;-60
2023/04/30 08:18:42;;;;;;;;;;;19.60;39.00;;;;;;5070943;28;19974;-60
2023/04/30 08:21:10;;;;;;;;;;;19.60;38.90;;;;;;5089708;28;19920;-60
2023/04/30 08:23:37;;;;;;;;;;;19.60;39.00;;;;;;5087692;28;19924;-60
2023/04/30 08:26:04;;;;;;;;;;;19.60;39.00;;;;;;5070310;28;19931;-60
2023/04/30 08:28:31;;;;;;;;;;;19.60;39.00;;;;;;5083804;28;19985;-60
2023/04/30 08:30:57;;;;;;;;;;;19.60;39.10;;;;;;5070436;28;19920;-61
2023/04/30 08:33:24;;;;;;;;;;;19.60;39.10;;;;;;5086707;28;19927;-60
2023/04/30 08:35:51;;;;;;;;;;;19.60;39.20;;;;;;5085459;28;19964;-62
2023/04/30 08:38:19;;;;;;;;;;;19.60;39.20;;;;;;5086849;28;19970;-60
2023/04/30 08:40:47;;;;;;;;;;;19.60;39.10;;;;;;5087649;28;20329;-60
2023/04/30 08:43:14;;;;;;;;;;;19.60;38.80;;;;;;5089056;28;19924;-62
2023/04/30 08:45:40;;;;;;;;;;;19.60;38.80;;;;;;5094812;28;19942;-62
2023/04/30 08:48:09;;;;;;;;;;;19.60;38.70;;;;;;5074240;28;19924;-61
2023/04/30 08:50:36;;;;;;;;;;;19.60;38.80;;;;;;5092156;28;20388;-60
2023/04/30 08:53:03;;;;;;;;;;;19.60;38.80;;;;;;5072101;28;20325;-60
2023/04/30 08:55:32;;;;;;;;;;;19.60;38.80;;;;;;5073685;28;20332;-61
2023/04/30 08:57:58;;;;;;;;;;;19.60;38.80;;;;;;5083168;28;19927;-61
2023/04/30 09:00:25;;;;;;;;;;;19.60;38.90;;;;;;5073994;28;19927;-61
2023/04/30 09:02:52;;;;;;;;;;;19.60;38.90;;;;;;5074299;28;20243;-61
2023/04/30 09:05:19;;;;;;;;;;;19.60;38.90;;;;;;5091641;28;19920;-61
2023/04/30 09:07:46;;;;;;;;;;;19.60;38.90;;;;;;5074128;28;20023;-60
2023/04/30 09:10:16;;;;;;;;;;;19.60;38.90;;;;;;5093167;28;20373;-60
2023/04/30 09:12:44;;;;;;;;;;;19.60;38.90;;;;;;5061762;28;19924;-61
2023/04/30 09:15:11;;;;;;;;;;;19.60;39.00;;;;;;5084848;28;20342;-60
2023/04/30 09:17:38;;;;;;;;;;;19.60;39.00;;;;;;5090932;28;19920;-61
2023/04/30 09:20:08;;;;;;;;;;;19.60;39.00;;;;;;5091453;28;19920;-60
2023/04/30 09:22:35;;;;;;;;;;;19.60;39.00;;;;;;5090375;28;19920;-60
2023/04/30 09:25:02;;;;;;;;;;;19.60;39.00;;;;;;5074557;28;19989;-60
2023/04/30 09:27:29;;;;;;;;;;;19.60;39.00;;;;;;5074118;28;20285;-61
2023/04/30 09:29:57;;;;;;;;;;;19.60;39.00;;;;;;5066711;28;19921;-61
2023/04/30 09:32:24;;;;;;;;;;;19.60;39.10;;;;;;5070370;28;19921;-61
2023/04/30 09:34:51;;;;;;;;;;;19.60;39.10;;;;;;5079778;28;19993;-61
2023/04/30 09:37:18;;;;;;;;;;;19.60;39.10;;;;;;5074069;28;20388;-61
2023/04/30 09:39:48;;;;;;;;;;;19.60;39.10;;;;;;5090015;28;19920;-60
2023/04/30 09:42:15;;;;;;;;;;;19.60;39.20;;;;;;5091143;28;20031;-60
2023/04/30 09:44:42;;;;;;;;;;;19.60;39.20;;;;;;5073648;28;19920;-60
2023/04/30 09:47:14;;;;;;;;;;;19.60;39.10;;;;;;5073142;28;19924;-60
2023/04/30 09:49:44;;;;;;;;;;;19.60;39.10;;;;;;5090150;28;20346;-60
2023/04/30 09:52:11;;;;;;;;;;;19.60;39.10;;;;;;5090779;28;19974;-60
2023/04/30 09:54:38;;;;;;;;;;;19.60;39.20;;;;;;5090245;28;19930;-61
2023/04/30 09:57:08;;;;;;;;;;;19.60;39.20;;;;;;5090855;28;19973;-60
2023/04/30 09:59:38;;;;;;;;;;;19.60;39.20;;;;;;5073582;28;19920;-60
2023/04/30 10:02:05;;;;;;;;;;;19.60;39.20;;;;;;5072882;28;19935;-60
2023/04/30 10:04:34;;;;;;;;;;;19.60;39.20;;;;;;5089985;28;19921;-60
2023/04/30 10:07:01;;;;;;;;;;;19.60;39.20;;;;;;5073752;28;19970;-60
2023/04/30 10:09:28;;;;;;;;;;;19.60;39.20;;;;;;5090196;28;20037;-60
2023/04/30 10:11:55;;;;;;;;;;;19.60;39.20;;;;;;5090438;28;19920;-60
2023/04/30 10:14:22;;;;;;;;;;;19.60;39.20;;;;;;5090226;28;19920;-60
2023/04/30 10:16:51;;;;;;;;;;;19.60;39.20;;;;;;5091729;28;19931;-60
2023/04/30 10:19:18;;;;;;;;;;;19.60;39.20;;;;;;5060211;28;19920;-60
2023/04/30 10:21:47;;;;;;;;;;;19.60;39.20;;;;;;5073081;28;19919;-60
2023/04/30 10:24:13;;;;;;;;;;;19.60;39.20;;;;;;5073157;28;19927;-60
2023/04/30 10:26:41;;;;;;;;;;;19.60;39.20;;;;;;5073086;28;19969;-60
2023/04/30 10:29:07;;;;;;;;;;;19.60;39.30;;;;;;5073382;28;19920;-60
2023/04/30 10:31:34;;;;;;;;;;;19.60;39.30;;;;;;5056561;28;19959;-60
2023/04/30 10:34:04;;;;;;;;;;;19.60;39.20;;;;;;5073002;28;19946;-60
2023/04/30 10:36:33;;;;;;;;;;;19.60;39.30;;;;;;5090738;28;19946;-60
2023/04/30 10:39:01;;;;;;;;;;;19.60;39.20;;;;;;5090136;28;19920;-60
2023/04/30 10:41:28;;;;;;;;;;;19.60;39.30;;;;;;5090671;28;19924;-60
2023/04/30 10:43:56;;;;;;;;;;;19.60;39.30;;;;;;5089838;28;19947;-60
2023/04/30 10:46:23;;;;;;;;;;;19.60;39.30;;;;;;5090842;28;19928;-60
2023/04/30 10:48:50;;;;;;;;;;;19.60;39.30;;;;;;5072534;28;19979;-60
2023/04/30 10:51:17;;;;;;;;;;;19.60;39.30;;;;;;5076649;28;19985;-61
2023/04/30 10:53:44;;;;;;;;;;;19.60;39.30;;;;;;5069333;28;19920;-60
2023/04/30 10:56:12;;;;;;;;;;;19.60;39.30;;;;;;5085423;28;19931;-60
2023/04/30 10:58:39;;;;;;;;;;;19.60;39.30;;;;;;5072376;28;19946;-60
2023/04/30 11:01:07;;;;;;;;;;;19.60;39.30;;;;;;5090816;28;19928;-61
2023/04/30 11:03:34;;;;;;;;;;;19.60;39.30;;;;;;5072192;28;20011;-60
2023/04/30 11:06:02;;;;;;;;;;;19.60;39.30;;;;;;5073434;28;19920;-60
2023/04/30 11:08:33;;;;;;;;;;;19.60;39.30;;;;;;5092478;28;19998;-61
2023/04/30 11:11:00;;;;;;;;;;;19.60;39.30;;;;;;5078832;28;20261;-60
2023/04/30 11:13:28;;;;;;;;;;;19.60;39.30;;;;;;5090311;28;19920;-61
2023/04/30 11:15:55;;;;;;;;;;;19.60;39.30;;;;;;5072140;28;19924;-60
2023/04/30 11:18:22;;;;;;;;;;;19.60;39.30;;;;;;5071060;28;19920;-60
2023/04/30 11:20:49;;;;;;;;;;;19.60;39.30;;;;;;5090209;28;19966;-60
2023/04/30 11:23:16;;;;;;;;;;;19.60;39.30;;;;;;5090451;28;19935;-60
2023/04/30 11:25:43;;;;;;;;;;;19.60;39.40;;;;;;5089536;28;19965;-60
2023/04/30 11:28:14;;;;;;;;;;;19.60;39.30;;;;;;5072319;28;20010;-60
2023/04/30 11:30:42;;;;;;;;;;;19.60;39.30;;;;;;5071954;28;19924;-60
2023/04/30 11:33:10;;;;;;;;;;;19.60;39.30;;;;;;5071039;28;20271;-60
2023/04/30 11:35:37;;;;;;;;;;;19.60;39.30;;;;;;5071642;28;19946;-60
2023/04/30 11:38:04;;;;;;;;;;;19.60;39.30;;;;;;5072309;28;19924;-60
2023/04/30 11:40:30;;;;;;;;;;;19.60;39.40;;;;;;5086428;28;19989;-60
2023/04/30 11:42:57;;;;;;;;;;;19.60;39.40;;;;;;5069295;28;19936;-60
2023/04/30 11:45:26;;;;;;;;;;;19.60;39.40;;;;;;5075381;28;19928;-60
2023/04/30 11:47:55;;;;;;;;;;;19.60;39.40;;;;;;5089808;28;20003;-60
2023/04/30 11:50:26;;;;;;;;;;;19.60;39.40;;;;;;5088871;28;19920;-60
2023/04/30 11:52:53;;;;;;;;;;;19.60;39.40;;;;;;5088771;28;20282;-60
2023/04/30 11:55:20;;;;;;;;;;;19.60;39.40;;;;;;5088600;28;20372;-60
2023/04/30 11:57:48;;;;;;;;;;;19.60;39.40;;;;;;5079034;28;19925;-60
2023/04/30 12:00:15;;;;;;;;;;;19.70;39.50;;;;;;5073017;28;19920;-60
2023/04/30 12:02:42;;;;;;;;;;;19.60;39.40;;;;;;5071164;28;19951;-60
2023/04/30 12:05:14;;;;;;;;;;;19.60;39.40;;;;;;5088911;28;20391;-61
2023/04/30 12:07:45;;;;;;;;;;;19.60;39.40;;;;;;5069937;28;20185;-60
2023/04/30 12:10:11;;;;;;;;;;;19.60;39.40;;;;;;5071849;28;19927;-60
2023/04/30 12:12:38;;;;;;;;;;;19.60;39.40;;;;;;5071477;28;19920;-61
2023/04/30 12:15:12;;;;;;;;;;;19.60;39.40;;;;;;5062221;28;19966;-60
2023/04/30 12:17:39;;;;;;;;;;;19.60;39.40;;;;;;5071803;28;19927;-60
2023/04/30 12:20:09;;;;;;;;;;;19.70;39.50;;;;;;5075448;28;20018;-60
2023/04/30 12:22:37;;;;;;;;;;;19.60;39.40;;;;;;5075067;28;19923;-60
2023/04/30 12:25:08;;;;;;;;;;;19.60;39.40;;;;;;5075289;28;19920;-60
2023/04/30 12:27:35;;;;;;;;;;;19.60;39.40;;;;;;5092700;28;19927;-60
2023/04/30 12:30:07;;;;;;;;;;;19.60;39.40;;;;;;5074658;28;19974;-60
2023/04/30 12:32:37;;;;;;;;;;;19.60;39.40;;;;;;5065809;28;19920;-60
2023/04/30 12:35:04;;;;;;;;;;;19.60;39.40;;;;;;5075364;28;19950;-61
2023/04/30 12:37:32;;;;;;;;;;;19.60;39.40;;;;;;5074814;28;20251;-60
2023/04/30 12:40:00;;;;;;;;;;;19.70;39.50;;;;;;5074946;28;20022;-60
2023/04/30 12:42:31;;;;;;;;;;;19.60;39.40;;;;;;5091823;28;19931;-61
2023/04/30 12:44:58;;;;;;;;;;;19.60;39.40;;;;;;5091742;28;20082;-60
2023/04/30 12:47:25;;;;;;;;;;;19.70;39.50;;;;;;5091344;28;20299;-60
2023/04/30 12:49:51;;;;;;;;;;;19.60;39.40;;;;;;5091880;28;19965;-60
2023/04/30 12:52:18;;;;;;;;;;;19.60;39.40;;;;;;5092185;28;19973;-60
2023/04/30 12:54:45;;;;;;;;;;;19.60;39.40;;;;;;5074344;28;19920;-60
2023/04/30 12:57:13;;;;;;;;;;;19.60;39.40;;;;;;5091952;28;19920;-60
2023/04/30 12:59:40;;;;;;;;;;;19.60;39.40;;;;;;5091499;28;19924;-61
2023/04/30 13:02:08;;;;;;;;;;;19.70;39.50;;;;;;5074406;28;19931;-60
2023/04/30 13:04:34;;;;;;;;;;;19.70;39.50;;;;;;5074786;28;19920;-61
2023/04/30 13:07:01;;;;;;;;;;;19.70;39.50;;;;;;5091816;28;19927;-60
2023/04/30 13:09:28;;;;;;;;;;;19.70;39.50;;;;;;5070885;28;20024;-60
2023/04/30 13:11:55;;;;;;;;;;;19.70;39.50;;;;;;5069213;28;19920;-60
2023/04/30 13:14:23;;;;;;;;;;;19.70;39.60;;;;;;5075051;28;19927;-61
2023/04/30 13:16:50;;;;;;;;;;;19.70;40.10;;;;;;5092312;28;19920;-61
2023/04/30 13:19:16;;;;;;;;;;;19.70;39.50;;;;;;5074869;28;19927;-60
2023/04/30 13:21:43;;;;;;;;;;;19.70;39.60;;;;;;5074297;28;19943;-60
2023/04/30 13:24:10;;;;;;;;;;;19.70;39.60;;;;;;5074733;28;19927;-61
2023/04/30 13:26:37;;;;;;;;;;;19.70;39.50;;;;;;5084541;28;19991;-60
2023/04/30 13:29:03;;;;;;;;;;;19.70;39.50;;;;;;5070537;28;19962;-60
2023/04/30 13:31:32;;;;;;;;;;;19.70;39.60;;;;;;5082115;28;19984;-61
2023/04/30 13:33:59;;;;;;;;;;;19.70;39.50;;;;;;5074227;28;20382;-60
2023/04/30 13:36:25;;;;;;;;;;;19.70;39.50;;;;;;5092574;28;20414;-60
2023/04/30 13:38:52;;;;;;;;;;;19.70;39.50;;;;;;5074169;28;19920;-60
2023/04/30 13:41:20;;;;;;;;;;;19.70;39.50;;;;;;5074134;28;19920;-60
2023/04/30 13:43:47;;;;;;;;;;;19.70;39.50;;;;;;5073310;28;19920;-60
2023/04/30 13:46:14;;;;;;;;;;;19.70;39.50;;;;;;5074228;28;19942;-61
2023/04/30 13:48:42;;;;;;;;;;;19.70;39.50;;;;;;5073543;28;19966;-60
2023/04/30 13:51:09;;;;;;;;;;;19.70;39.50;;;;;;5074302;28;20033;-60
2023/04/30 13:53:36;;;;;;;;;;;19.70;39.50;;;;;;5092140;28;20301;-60
2023/04/30 13:56:03;;;;;;;;;;;19.70;39.50;;;;;;5091927;28;19927;-60
2023/04/30 13:58:30;;;;;;;;;;;19.70;39.60;;;;;;5073638;28;19920;-61
2023/04/30 14:00:56;;;;;;;;;;;19.70;39.50;;;;;;5072392;28;19920;-60
2023/04/30 14:03:23;;;;;;;;;;;19.70;39.50;;;;;;5073361;28;19923;-61
2023/04/30 14:05:52;;;;;;;;;;;19.70;39.50;;;;;;5090071;28;19920;-61
2023/04/30 14:08:19;;;;;;;;;;;19.70;39.50;;;;;;5073450;28;20301;-60
2023/04/30 14:10:46;;;;;;;;;;;19.70;39.50;;;;;;5072695;28;20040;-60
2023/04/30 14:13:13;;;;;;;;;;;19.70;39.60;;;;;;5073401;28;19920;-61
2023/04/30 14:15:39;;;;;;;;;;;19.70;39.60;;;;;;5072986;28;19938;-60
2023/04/30 14:18:06;;;;;;;;;;;19.70;39.50;;;;;;5072889;28;19927;-61